sensor_id;sensor_type;location;lat;lon;timestamp;P1;durP1;ratioP1;P2;durP2;ratioP2
9150;SDS011;4610;50.006;7.490;2022-12-08T00:01:22;13.13;;;4.90;;
9150;SDS011;4610;50.006;7.490;2022-12-08T00:03:51;11.67;;;5.07;;
9150;SDS011;4610;50.006;7.490;2022-12-08T00:06:21;12.07;;;5.03;;
9150;SDS011;4610;50.006;7.490;2022-12-08T00:09:13;13.20;;;5.17;;
9150;SDS011;4610;50.006;7.490;2022-12-08T00:11:52;12.77;;;5.80;;
9150;SDS011;4610;50.006;7.490;2022-12-08T00:14:24;13.43;;;5.40;;
9150;SDS011;4610;50.006;7.490;2022-12-08T00:16:53;12.67;;;5.40;;
9150;SDS011;4610;50.006;7.490;2022-12-08T00:19:21;14.40;;;5.90;;
9150;SDS011;4610;50.006;7.490;2022-12-08T00:21:48;13.83;;;5.53;;
9150;SDS011;4610;50.006;7.490;2022-12-08T00:24:15;13.50;;;5.00;;
9150;SDS011;4610;50.006;7.490;2022-12-08T00:26:43;17.10;;;5.60;;
9150;SDS011;4610;50.006;7.490;2022-12-08T00:29:09;12.17;;;5.70;;
9150;SDS011;4610;50.006;7.490;2022-12-08T00:31:36;9.87;;;4.97;;
9150;SDS011;4610;50.006;7.490;2022-12-08T00:34:05;14.60;;;5.73;;
9150;SDS011;4610;50.006;7.490;2022-12-08T00:36:31;14.00;;;6.23;;
9150;SDS011;4610;50.006;7.490;2022-12-08T00:38:59;13.20;;;6.17;;
9150;SDS011;4610;50.006;7.490;2022-12-08T00:41:27;14.50;;;5.60;;
9150;SDS011;4610;50.006;7.490;2022-12-08T00:44:12;9.83;;;5.33;;
9150;SDS011;4610;50.006;7.490;2022-12-08T00:46:41;16.17;;;5.70;;
9150;SDS011;4610;50.006;7.490;2022-12-08T00:49:09;10.90;;;5.23;;
9150;SDS011;4610;50.006;7.490;2022-12-08T00:51:36;12.60;;;5.67;;
9150;SDS011;4610;50.006;7.490;2022-12-08T00:54:03;11.53;;;5.00;;
9150;SDS011;4610;50.006;7.490;2022-12-08T00:56:30;17.33;;;5.90;;
9150;SDS011;4610;50.006;7.490;2022-12-08T00:58:57;13.27;;;5.20;;
9150;SDS011;4610;50.006;7.490;2022-12-08T01:01:24;11.67;;;4.80;;
9150;SDS011;4610;50.006;7.490;2022-12-08T01:03:51;15.57;;;5.17;;
9150;SDS011;4610;50.006;7.490;2022-12-08T01:06:20;14.33;;;5.40;;
9150;SDS011;4610;50.006;7.490;2022-12-08T01:08:46;15.90;;;5.37;;
9150;SDS011;4610;50.006;7.490;2022-12-08T01:11:14;12.07;;;4.77;;
9150;SDS011;4610;50.006;7.490;2022-12-08T01:13:42;14.30;;;5.07;;
9150;SDS011;4610;50.006;7.490;2022-12-08T01:16:09;10.83;;;4.70;;
9150;SDS011;4610;50.006;7.490;2022-12-08T01:18:44;16.27;;;5.63;;
9150;SDS011;4610;50.006;7.490;2022-12-08T01:21:11;13.00;;;5.13;;
9150;SDS011;4610;50.006;7.490;2022-12-08T01:23:39;18.10;;;5.10;;
9150;SDS011;4610;50.006;7.490;2022-12-08T01:26:07;12.83;;;4.83;;
9150;SDS011;4610;50.006;7.490;2022-12-08T01:28:35;21.67;;;7.17;;
9150;SDS011;4610;50.006;7.490;2022-12-08T01:31:02;14.40;;;5.40;;
9150;SDS011;4610;50.006;7.490;2022-12-08T01:33:30;7.93;;;4.70;;
9150;SDS011;4610;50.006;7.490;2022-12-08T01:36:01;12.17;;;5.07;;
9150;SDS011;4610;50.006;7.490;2022-12-08T01:38:28;23.43;;;7.33;;
9150;SDS011;4610;50.006;7.490;2022-12-08T01:40:56;11.83;;;4.90;;
9150;SDS011;4610;50.006;7.490;2022-12-08T01:43:23;11.57;;;4.63;;
9150;SDS011;4610;50.006;7.490;2022-12-08T01:45:50;9.87;;;3.97;;
9150;SDS011;4610;50.006;7.490;2022-12-08T01:48:17;14.13;;;4.33;;
9150;SDS011;4610;50.006;7.490;2022-12-08T01:54:10;12.30;;;4.63;;
9150;SDS011;4610;50.006;7.490;2022-12-08T01:56:40;12.97;;;5.43;;
9150;SDS011;4610;50.006;7.490;2022-12-08T01:59:09;9.67;;;4.20;;
9150;SDS011;4610;50.006;7.490;2022-12-08T02:01:36;10.20;;;4.27;;
9150;SDS011;4610;50.006;7.490;2022-12-08T02:04:03;10.37;;;4.43;;
9150;SDS011;4610;50.006;7.490;2022-12-08T02:06:32;11.53;;;4.47;;
9150;SDS011;4610;50.006;7.490;2022-12-08T02:09:01;10.83;;;4.33;;
9150;SDS011;4610;50.006;7.490;2022-12-08T02:11:30;8.93;;;3.70;;
9150;SDS011;4610;50.006;7.490;2022-12-08T02:13:58;12.10;;;4.47;;
9150;SDS011;4610;50.006;7.490;2022-12-08T02:16:31;11.13;;;4.47;;
9150;SDS011;4610;50.006;7.490;2022-12-08T02:19:09;9.40;;;3.70;;
9150;SDS011;4610;50.006;7.490;2022-12-08T02:22:07;7.83;;;3.20;;
9150;SDS011;4610;50.006;7.490;2022-12-08T02:24:39;10.50;;;3.80;;
9150;SDS011;4610;50.006;7.490;2022-12-08T02:27:27;9.00;;;3.47;;
9150;SDS011;4610;50.006;7.490;2022-12-08T02:30:16;9.20;;;3.40;;
9150;SDS011;4610;50.006;7.490;2022-12-08T02:33:00;13.10;;;4.17;;
9150;SDS011;4610;50.006;7.490;2022-12-08T02:35:50;10.97;;;4.23;;
9150;SDS011;4610;50.006;7.490;2022-12-08T02:38:25;11.97;;;4.27;;
9150;SDS011;4610;50.006;7.490;2022-12-08T02:41:05;11.33;;;4.20;;
9150;SDS011;4610;50.006;7.490;2022-12-08T02:43:41;4.97;;;3.50;;
9150;SDS011;4610;50.006;7.490;2022-12-08T02:46:12;9.27;;;3.80;;
9150;SDS011;4610;50.006;7.490;2022-12-08T02:48:42;12.67;;;4.93;;
9150;SDS011;4610;50.006;7.490;2022-12-08T02:51:10;9.53;;;4.00;;
9150;SDS011;4610;50.006;7.490;2022-12-08T02:53:37;15.10;;;3.90;;
9150;SDS011;4610;50.006;7.490;2022-12-08T02:56:09;7.70;;;3.60;;
9150;SDS011;4610;50.006;7.490;2022-12-08T02:58:49;12.73;;;5.00;;
9150;SDS011;4610;50.006;7.490;2022-12-08T03:01:32;14.27;;;4.57;;
9150;SDS011;4610;50.006;7.490;2022-12-08T03:04:13;10.37;;;4.03;;
9150;SDS011;4610;50.006;7.490;2022-12-08T03:06:49;9.90;;;3.70;;
9150;SDS011;4610;50.006;7.490;2022-12-08T03:09:24;8.67;;;3.87;;
9150;SDS011;4610;50.006;7.490;2022-12-08T03:12:02;10.30;;;4.60;;
9150;SDS011;4610;50.006;7.490;2022-12-08T03:14:35;13.47;;;4.40;;
9150;SDS011;4610;50.006;7.490;2022-12-08T03:17:05;9.93;;;4.23;;
9150;SDS011;4610;50.006;7.490;2022-12-08T03:19:34;11.10;;;4.30;;
9150;SDS011;4610;50.006;7.490;2022-12-08T03:22:05;9.37;;;4.07;;
9150;SDS011;4610;50.006;7.490;2022-12-08T03:24:35;9.63;;;3.63;;
9150;SDS011;4610;50.006;7.490;2022-12-08T03:27:05;10.50;;;4.20;;
9150;SDS011;4610;50.006;7.490;2022-12-08T03:29:34;10.53;;;4.50;;
9150;SDS011;4610;50.006;7.490;2022-12-08T03:32:03;11.87;;;4.37;;
9150;SDS011;4610;50.006;7.490;2022-12-08T03:34:34;12.93;;;4.60;;
9150;SDS011;4610;50.006;7.490;2022-12-08T03:37:01;11.90;;;4.37;;
9150;SDS011;4610;50.006;7.490;2022-12-08T03:39:30;8.37;;;4.00;;
9150;SDS011;4610;50.006;7.490;2022-12-08T03:41:57;11.73;;;4.73;;
9150;SDS011;4610;50.006;7.490;2022-12-08T03:44:24;11.63;;;4.40;;
9150;SDS011;4610;50.006;7.490;2022-12-08T03:46:51;11.23;;;4.93;;
9150;SDS011;4610;50.006;7.490;2022-12-08T03:49:17;14.17;;;4.80;;
9150;SDS011;4610;50.006;7.490;2022-12-08T03:51:44;9.77;;;3.90;;
9150;SDS011;4610;50.006;7.490;2022-12-08T03:54:11;10.30;;;4.80;;
9150;SDS011;4610;50.006;7.490;2022-12-08T03:56:39;13.43;;;4.73;;
9150;SDS011;4610;50.006;7.490;2022-12-08T03:59:06;12.37;;;4.77;;
9150;SDS011;4610;50.006;7.490;2022-12-08T04:01:33;13.47;;;4.70;;
9150;SDS011;4610;50.006;7.490;2022-12-08T04:04:00;13.77;;;5.23;;
9150;SDS011;4610;50.006;7.490;2022-12-08T04:06:27;11.57;;;4.67;;
9150;SDS011;4610;50.006;7.490;2022-12-08T04:08:54;12.00;;;5.13;;
9150;SDS011;4610;50.006;7.490;2022-12-08T04:11:20;12.63;;;5.30;;
9150;SDS011;4610;50.006;7.490;2022-12-08T04:13:49;13.40;;;4.30;;
9150;SDS011;4610;50.006;7.490;2022-12-08T04:16:16;9.47;;;4.23;;
9150;SDS011;4610;50.006;7.490;2022-12-08T04:18:45;13.67;;;4.70;;
9150;SDS011;4610;50.006;7.490;2022-12-08T04:21:12;9.50;;;4.10;;
9150;SDS011;4610;50.006;7.490;2022-12-08T04:23:39;14.67;;;5.70;;
9150;SDS011;4610;50.006;7.490;2022-12-08T04:26:06;10.10;;;4.93;;
9150;SDS011;4610;50.006;7.490;2022-12-08T04:28:33;20.83;;;7.30;;
9150;SDS011;4610;50.006;7.490;2022-12-08T04:31:02;11.80;;;4.77;;
9150;SDS011;4610;50.006;7.490;2022-12-08T04:33:29;12.03;;;6.00;;
9150;SDS011;4610;50.006;7.490;2022-12-08T04:35:56;16.10;;;5.97;;
9150;SDS011;4610;50.006;7.490;2022-12-08T04:38:23;15.60;;;6.10;;
9150;SDS011;4610;50.006;7.490;2022-12-08T04:40:50;15.10;;;6.33;;
9150;SDS011;4610;50.006;7.490;2022-12-08T04:43:17;15.10;;;6.10;;
9150;SDS011;4610;50.006;7.490;2022-12-08T04:45:43;19.73;;;6.27;;
9150;SDS011;4610;50.006;7.490;2022-12-08T04:48:12;17.33;;;6.60;;
9150;SDS011;4610;50.006;7.490;2022-12-08T04:50:39;18.03;;;5.97;;
9150;SDS011;4610;50.006;7.490;2022-12-08T04:53:08;15.53;;;6.00;;
9150;SDS011;4610;50.006;7.490;2022-12-08T04:55:36;15.07;;;5.90;;
9150;SDS011;4610;50.006;7.490;2022-12-08T04:58:04;15.00;;;5.83;;
9150;SDS011;4610;50.006;7.490;2022-12-08T05:00:31;14.47;;;5.80;;
9150;SDS011;4610;50.006;7.490;2022-12-08T05:02:57;9.27;;;4.90;;
9150;SDS011;4610;50.006;7.490;2022-12-08T05:05:25;19.87;;;5.97;;
9150;SDS011;4610;50.006;7.490;2022-12-08T05:07:52;16.50;;;5.93;;
9150;SDS011;4610;50.006;7.490;2022-12-08T05:10:19;11.00;;;4.77;;
9150;SDS011;4610;50.006;7.490;2022-12-08T05:12:46;11.23;;;5.67;;
9150;SDS011;4610;50.006;7.490;2022-12-08T05:15:13;14.87;;;5.17;;
9150;SDS011;4610;50.006;7.490;2022-12-08T05:17:40;17.27;;;6.30;;
9150;SDS011;4610;50.006;7.490;2022-12-08T05:20:07;17.03;;;6.53;;
9150;SDS011;4610;50.006;7.490;2022-12-08T05:22:36;13.47;;;5.80;;
9150;SDS011;4610;50.006;7.490;2022-12-08T05:25:03;8.57;;;4.90;;
9150;SDS011;4610;50.006;7.490;2022-12-08T05:29:56;10.63;;;4.40;;
9150;SDS011;4610;50.006;7.490;2022-12-08T05:32:23;14.70;;;4.97;;
9150;SDS011;4610;50.006;7.490;2022-12-08T05:34:49;12.00;;;5.00;;
9150;SDS011;4610;50.006;7.490;2022-12-08T05:37:16;7.83;;;4.07;;
9150;SDS011;4610;50.006;7.490;2022-12-08T05:39:45;16.07;;;5.30;;
9150;SDS011;4610;50.006;7.490;2022-12-08T05:42:11;16.80;;;5.17;;
9150;SDS011;4610;50.006;7.490;2022-12-08T05:44:38;14.67;;;4.97;;
9150;SDS011;4610;50.006;7.490;2022-12-08T05:47:05;16.03;;;4.90;;
9150;SDS011;4610;50.006;7.490;2022-12-08T05:49:32;7.10;;;3.73;;
9150;SDS011;4610;50.006;7.490;2022-12-08T05:51:59;14.57;;;4.80;;
9150;SDS011;4610;50.006;7.490;2022-12-08T05:54:26;15.37;;;4.83;;
9150;SDS011;4610;50.006;7.490;2022-12-08T05:56:54;9.70;;;4.30;;
9150;SDS011;4610;50.006;7.490;2022-12-08T05:59:21;11.43;;;3.80;;
9150;SDS011;4610;50.006;7.490;2022-12-08T06:01:49;12.57;;;3.93;;
9150;SDS011;4610;50.006;7.490;2022-12-08T06:04:16;15.67;;;5.03;;
9150;SDS011;4610;50.006;7.490;2022-12-08T06:06:43;10.73;;;4.47;;
9150;SDS011;4610;50.006;7.490;2022-12-08T06:09:10;14.57;;;4.67;;
9150;SDS011;4610;50.006;7.490;2022-12-08T06:11:37;15.50;;;5.03;;
9150;SDS011;4610;50.006;7.490;2022-12-08T06:14:07;15.43;;;4.47;;
9150;SDS011;4610;50.006;7.490;2022-12-08T06:16:36;11.63;;;3.53;;
9150;SDS011;4610;50.006;7.490;2022-12-08T06:19:03;7.43;;;3.27;;
9150;SDS011;4610;50.006;7.490;2022-12-08T06:21:29;12.07;;;4.23;;
9150;SDS011;4610;50.006;7.490;2022-12-08T06:23:56;14.33;;;4.27;;
9150;SDS011;4610;50.006;7.490;2022-12-08T06:26:23;13.27;;;4.57;;
9150;SDS011;4610;50.006;7.490;2022-12-08T06:28:50;13.60;;;4.43;;
9150;SDS011;4610;50.006;7.490;2022-12-08T06:31:20;12.60;;;4.80;;
9150;SDS011;4610;50.006;7.490;2022-12-08T06:33:48;12.87;;;4.57;;
9150;SDS011;4610;50.006;7.490;2022-12-08T06:36:15;8.40;;;3.93;;
9150;SDS011;4610;50.006;7.490;2022-12-08T06:38:43;16.57;;;5.30;;
9150;SDS011;4610;50.006;7.490;2022-12-08T06:41:10;13.77;;;4.90;;
9150;SDS011;4610;50.006;7.490;2022-12-08T06:43:38;12.87;;;4.00;;
9150;SDS011;4610;50.006;7.490;2022-12-08T06:46:06;11.17;;;3.80;;
9150;SDS011;4610;50.006;7.490;2022-12-08T06:48:35;20.07;;;5.63;;
9150;SDS011;4610;50.006;7.490;2022-12-08T06:51:06;12.80;;;4.40;;
9150;SDS011;4610;50.006;7.490;2022-12-08T06:53:33;19.27;;;4.83;;
9150;SDS011;4610;50.006;7.490;2022-12-08T06:56:00;7.03;;;3.60;;
9150;SDS011;4610;50.006;7.490;2022-12-08T06:58:27;21.67;;;5.97;;
9150;SDS011;4610;50.006;7.490;2022-12-08T07:00:54;12.77;;;3.73;;
9150;SDS011;4610;50.006;7.490;2022-12-08T07:03:21;28.67;;;6.87;;
9150;SDS011;4610;50.006;7.490;2022-12-08T07:05:54;15.00;;;4.50;;
9150;SDS011;4610;50.006;7.490;2022-12-08T07:08:21;13.73;;;4.17;;
9150;SDS011;4610;50.006;7.490;2022-12-08T07:10:48;11.77;;;3.97;;
9150;SDS011;4610;50.006;7.490;2022-12-08T07:13:15;10.77;;;3.80;;
9150;SDS011;4610;50.006;7.490;2022-12-08T07:15:42;10.77;;;3.63;;
9150;SDS011;4610;50.006;7.490;2022-12-08T07:18:08;14.90;;;3.90;;
9150;SDS011;4610;50.006;7.490;2022-12-08T07:20:35;12.57;;;4.40;;
9150;SDS011;4610;50.006;7.490;2022-12-08T07:23:04;10.47;;;3.40;;
9150;SDS011;4610;50.006;7.490;2022-12-08T07:25:30;13.27;;;3.97;;
9150;SDS011;4610;50.006;7.490;2022-12-08T07:27:58;8.27;;;3.57;;
9150;SDS011;4610;50.006;7.490;2022-12-08T07:30:25;7.63;;;3.67;;
9150;SDS011;4610;50.006;7.490;2022-12-08T07:32:52;12.50;;;3.70;;
9150;SDS011;4610;50.006;7.490;2022-12-08T07:35:18;13.60;;;4.00;;
9150;SDS011;4610;50.006;7.490;2022-12-08T07:37:45;15.53;;;4.50;;
9150;SDS011;4610;50.006;7.490;2022-12-08T07:40:14;16.03;;;4.20;;
9150;SDS011;4610;50.006;7.490;2022-12-08T07:42:41;14.47;;;3.60;;
9150;SDS011;4610;50.006;7.490;2022-12-08T07:45:08;9.27;;;3.13;;
9150;SDS011;4610;50.006;7.490;2022-12-08T07:47:35;16.60;;;4.30;;
9150;SDS011;4610;50.006;7.490;2022-12-08T07:50:02;11.80;;;3.80;;
9150;SDS011;4610;50.006;7.490;2022-12-08T07:52:29;14.00;;;3.27;;
9150;SDS011;4610;50.006;7.490;2022-12-08T07:54:56;10.07;;;3.27;;
9150;SDS011;4610;50.006;7.490;2022-12-08T07:57:24;10.73;;;3.90;;
9150;SDS011;4610;50.006;7.490;2022-12-08T07:59:51;9.63;;;3.47;;
9150;SDS011;4610;50.006;7.490;2022-12-08T08:02:18;13.87;;;3.77;;
9150;SDS011;4610;50.006;7.490;2022-12-08T08:04:48;10.00;;;3.53;;
9150;SDS011;4610;50.006;7.490;2022-12-08T08:07:15;12.67;;;3.53;;
9150;SDS011;4610;50.006;7.490;2022-12-08T08:09:42;8.87;;;3.77;;
9150;SDS011;4610;50.006;7.490;2022-12-08T08:12:09;12.20;;;3.53;;
9150;SDS011;4610;50.006;7.490;2022-12-08T08:14:37;10.50;;;3.60;;
9150;SDS011;4610;50.006;7.490;2022-12-08T08:17:04;9.70;;;3.03;;
9150;SDS011;4610;50.006;7.490;2022-12-08T08:19:31;10.87;;;3.60;;
9150;SDS011;4610;50.006;7.490;2022-12-08T08:21:58;11.50;;;3.60;;
9150;SDS011;4610;50.006;7.490;2022-12-08T08:24:25;9.97;;;3.13;;
9150;SDS011;4610;50.006;7.490;2022-12-08T08:26:52;11.43;;;3.40;;
9150;SDS011;4610;50.006;7.490;2022-12-08T08:29:19;11.17;;;3.60;;
9150;SDS011;4610;50.006;7.490;2022-12-08T08:31:48;10.37;;;3.20;;
9150;SDS011;4610;50.006;7.490;2022-12-08T08:34:15;16.87;;;4.13;;
9150;SDS011;4610;50.006;7.490;2022-12-08T08:36:42;11.07;;;3.63;;
9150;SDS011;4610;50.006;7.490;2022-12-08T08:39:09;8.60;;;2.70;;
9150;SDS011;4610;50.006;7.490;2022-12-08T08:41:36;10.73;;;3.20;;
9150;SDS011;4610;50.006;7.490;2022-12-08T08:44:03;10.00;;;3.37;;
9150;SDS011;4610;50.006;7.490;2022-12-08T08:46:30;10.73;;;3.30;;
9150;SDS011;4610;50.006;7.490;2022-12-08T08:48:58;9.87;;;3.07;;
9150;SDS011;4610;50.006;7.490;2022-12-08T08:51:26;6.03;;;2.67;;
9150;SDS011;4610;50.006;7.490;2022-12-08T08:53:53;7.87;;;3.00;;
9150;SDS011;4610;50.006;7.490;2022-12-08T08:56:19;12.97;;;3.73;;
9150;SDS011;4610;50.006;7.490;2022-12-08T08:58:47;9.30;;;3.00;;
9150;SDS011;4610;50.006;7.490;2022-12-08T09:01:15;8.53;;;3.20;;
9150;SDS011;4610;50.006;7.490;2022-12-08T09:03:43;11.30;;;3.30;;
9150;SDS011;4610;50.006;7.490;2022-12-08T09:06:12;9.77;;;3.20;;
9150;SDS011;4610;50.006;7.490;2022-12-08T09:08:39;16.67;;;4.80;;
9150;SDS011;4610;50.006;7.490;2022-12-08T09:11:07;9.33;;;3.07;;
9150;SDS011;4610;50.006;7.490;2022-12-08T09:13:34;8.63;;;3.13;;
9150;SDS011;4610;50.006;7.490;2022-12-08T09:16:06;9.73;;;3.27;;
9150;SDS011;4610;50.006;7.490;2022-12-08T09:18:35;18.13;;;4.40;;
9150;SDS011;4610;50.006;7.490;2022-12-08T09:21:03;6.87;;;3.03;;
9150;SDS011;4610;50.006;7.490;2022-12-08T09:23:32;9.07;;;3.10;;
9150;SDS011;4610;50.006;7.490;2022-12-08T09:25:58;5.73;;;2.60;;
9150;SDS011;4610;50.006;7.490;2022-12-08T09:28:25;16.03;;;4.03;;
9150;SDS011;4610;50.006;7.490;2022-12-08T09:30:52;9.60;;;3.53;;
9150;SDS011;4610;50.006;7.490;2022-12-08T09:33:19;6.43;;;2.80;;
9150;SDS011;4610;50.006;7.490;2022-12-08T09:35:46;9.20;;;3.43;;
9150;SDS011;4610;50.006;7.490;2022-12-08T09:38:12;10.63;;;3.50;;
9150;SDS011;4610;50.006;7.490;2022-12-08T09:40:41;9.27;;;3.20;;
9150;SDS011;4610;50.006;7.490;2022-12-08T09:43:17;4.33;;;2.67;;
9150;SDS011;4610;50.006;7.490;2022-12-08T09:45:50;9.23;;;3.00;;
9150;SDS011;4610;50.006;7.490;2022-12-08T09:48:19;12.53;;;3.63;;
9150;SDS011;4610;50.006;7.490;2022-12-08T09:50:50;6.83;;;2.77;;
9150;SDS011;4610;50.006;7.490;2022-12-08T09:53:20;10.57;;;2.97;;
9150;SDS011;4610;50.006;7.490;2022-12-08T09:55:51;8.13;;;2.80;;
9150;SDS011;4610;50.006;7.490;2022-12-08T09:58:24;12.20;;;3.43;;
9150;SDS011;4610;50.006;7.490;2022-12-08T10:00:57;9.33;;;2.87;;
9150;SDS011;4610;50.006;7.490;2022-12-08T10:03:26;5.20;;;2.53;;
9150;SDS011;4610;50.006;7.490;2022-12-08T10:05:56;7.90;;;2.90;;
9150;SDS011;4610;50.006;7.490;2022-12-08T10:08:33;22.20;;;5.53;;
9150;SDS011;4610;50.006;7.490;2022-12-08T10:11:08;11.43;;;2.97;;
9150;SDS011;4610;50.006;7.490;2022-12-08T10:13:40;6.93;;;2.43;;
9150;SDS011;4610;50.006;7.490;2022-12-08T10:16:14;9.47;;;3.10;;
9150;SDS011;4610;50.006;7.490;2022-12-08T10:18:51;10.17;;;3.27;;
9150;SDS011;4610;50.006;7.490;2022-12-08T10:21:23;9.13;;;3.23;;
9150;SDS011;4610;50.006;7.490;2022-12-08T10:23:54;9.40;;;3.03;;
9150;SDS011;4610;50.006;7.490;2022-12-08T10:26:27;9.70;;;3.10;;
9150;SDS011;4610;50.006;7.490;2022-12-08T10:28:56;7.57;;;2.53;;
9150;SDS011;4610;50.006;7.490;2022-12-08T10:31:26;8.27;;;2.93;;
9150;SDS011;4610;50.006;7.490;2022-12-08T10:33:56;11.20;;;2.67;;
9150;SDS011;4610;50.006;7.490;2022-12-08T10:36:28;17.10;;;3.33;;
9150;SDS011;4610;50.006;7.490;2022-12-08T10:39:19;8.97;;;3.00;;
9150;SDS011;4610;50.006;7.490;2022-12-08T10:42:01;8.37;;;2.60;;
9150;SDS011;4610;50.006;7.490;2022-12-08T10:44:32;12.43;;;2.97;;
9150;SDS011;4610;50.006;7.490;2022-12-08T10:47:10;8.47;;;2.70;;
9150;SDS011;4610;50.006;7.490;2022-12-08T10:49:37;11.30;;;2.83;;
9150;SDS011;4610;50.006;7.490;2022-12-08T10:52:07;9.13;;;2.80;;
9150;SDS011;4610;50.006;7.490;2022-12-08T10:54:34;9.27;;;3.10;;
9150;SDS011;4610;50.006;7.490;2022-12-08T10:57:03;9.80;;;2.80;;
9150;SDS011;4610;50.006;7.490;2022-12-08T10:59:31;10.87;;;2.97;;
9150;SDS011;4610;50.006;7.490;2022-12-08T11:01:59;8.60;;;2.80;;
9150;SDS011;4610;50.006;7.490;2022-12-08T11:04:29;8.70;;;2.57;;
9150;SDS011;4610;50.006;7.490;2022-12-08T11:07:01;11.00;;;2.93;;
9150;SDS011;4610;50.006;7.490;2022-12-08T11:09:33;8.60;;;3.00;;
9150;SDS011;4610;50.006;7.490;2022-12-08T11:12:08;42.93;;;9.30;;
9150;SDS011;4610;50.006;7.490;2022-12-08T11:14:45;10.10;;;3.10;;
9150;SDS011;4610;50.006;7.490;2022-12-08T11:17:14;9.83;;;3.20;;
9150;SDS011;4610;50.006;7.490;2022-12-08T11:19:43;11.27;;;3.57;;
9150;SDS011;4610;50.006;7.490;2022-12-08T11:22:21;15.57;;;3.70;;
9150;SDS011;4610;50.006;7.490;2022-12-08T11:24:57;10.77;;;3.23;;
9150;SDS011;4610;50.006;7.490;2022-12-08T11:27:27;8.00;;;2.83;;
9150;SDS011;4610;50.006;7.490;2022-12-08T11:29:54;8.20;;;2.97;;
9150;SDS011;4610;50.006;7.490;2022-12-08T11:32:21;12.63;;;3.00;;
9150;SDS011;4610;50.006;7.490;2022-12-08T11:34:49;8.40;;;2.67;;
9150;SDS011;4610;50.006;7.490;2022-12-08T11:37:22;9.53;;;3.27;;
9150;SDS011;4610;50.006;7.490;2022-12-08T11:39:52;10.53;;;2.67;;
9150;SDS011;4610;50.006;7.490;2022-12-08T11:42:23;9.43;;;3.03;;
9150;SDS011;4610;50.006;7.490;2022-12-08T11:44:56;12.10;;;3.10;;
9150;SDS011;4610;50.006;7.490;2022-12-08T11:47:25;9.70;;;2.90;;
9150;SDS011;4610;50.006;7.490;2022-12-08T11:50:01;20.07;;;4.40;;
9150;SDS011;4610;50.006;7.490;2022-12-08T11:52:42;13.50;;;3.83;;
9150;SDS011;4610;50.006;7.490;2022-12-08T11:55:16;13.03;;;3.50;;
9150;SDS011;4610;50.006;7.490;2022-12-08T11:57:56;9.70;;;3.23;;
9150;SDS011;4610;50.006;7.490;2022-12-08T12:00:28;8.90;;;3.33;;
9150;SDS011;4610;50.006;7.490;2022-12-08T12:02:57;10.63;;;3.23;;
9150;SDS011;4610;50.006;7.490;2022-12-08T12:05:32;14.00;;;2.93;;
9150;SDS011;4610;50.006;7.490;2022-12-08T12:08:11;12.13;;;3.77;;
9150;SDS011;4610;50.006;7.490;2022-12-08T12:10:52;12.73;;;3.57;;
9150;SDS011;4610;50.006;7.490;2022-12-08T12:13:33;9.37;;;3.30;;
9150;SDS011;4610;50.006;7.490;2022-12-08T12:19:08;13.17;;;3.53;;
9150;SDS011;4610;50.006;7.490;2022-12-08T12:21:40;11.07;;;3.40;;
9150;SDS011;4610;50.006;7.490;2022-12-08T12:24:09;8.67;;;2.97;;
9150;SDS011;4610;50.006;7.490;2022-12-08T12:26:48;10.57;;;2.93;;
9150;SDS011;4610;50.006;7.490;2022-12-08T12:29:24;8.63;;;3.07;;
9150;SDS011;4610;50.006;7.490;2022-12-08T12:31:55;9.83;;;2.97;;
9150;SDS011;4610;50.006;7.490;2022-12-08T12:34:25;8.63;;;2.83;;
9150;SDS011;4610;50.006;7.490;2022-12-08T12:36:54;8.13;;;2.97;;
9150;SDS011;4610;50.006;7.490;2022-12-08T12:39:29;14.13;;;3.60;;
9150;SDS011;4610;50.006;7.490;2022-12-08T12:41:59;11.03;;;3.10;;
9150;SDS011;4610;50.006;7.490;2022-12-08T12:44:39;11.47;;;3.20;;
9150;SDS011;4610;50.006;7.490;2022-12-08T12:47:42;11.77;;;3.43;;
9150;SDS011;4610;50.006;7.490;2022-12-08T12:50:11;10.10;;;3.23;;
9150;SDS011;4610;50.006;7.490;2022-12-08T12:52:46;7.83;;;2.80;;
9150;SDS011;4610;50.006;7.490;2022-12-08T12:55:26;13.80;;;3.30;;
9150;SDS011;4610;50.006;7.490;2022-12-08T12:58:22;10.97;;;3.27;;
9150;SDS011;4610;50.006;7.490;2022-12-08T13:04:05;16.57;;;3.80;;
9150;SDS011;4610;50.006;7.490;2022-12-08T13:06:35;14.93;;;4.27;;
9150;SDS011;4610;50.006;7.490;2022-12-08T13:09:04;13.60;;;3.63;;
9150;SDS011;4610;50.006;7.490;2022-12-08T13:11:43;11.13;;;3.60;;
9150;SDS011;4610;50.006;7.490;2022-12-08T13:14:23;11.57;;;3.57;;
9150;SDS011;4610;50.006;7.490;2022-12-08T13:16:57;17.27;;;4.50;;
9150;SDS011;4610;50.006;7.490;2022-12-08T13:19:29;15.90;;;4.30;;
9150;SDS011;4610;50.006;7.490;2022-12-08T13:21:57;11.30;;;3.70;;
9150;SDS011;4610;50.006;7.490;2022-12-08T13:24:27;15.40;;;3.73;;
9150;SDS011;4610;50.006;7.490;2022-12-08T13:33:15;9.97;;;3.37;;
9150;SDS011;4610;50.006;7.490;2022-12-08T13:35:48;21.27;;;4.57;;
9150;SDS011;4610;50.006;7.490;2022-12-08T13:38:21;13.80;;;4.10;;
9150;SDS011;4610;50.006;7.490;2022-12-08T13:40:53;15.20;;;4.00;;
9150;SDS011;4610;50.006;7.490;2022-12-08T13:43:24;13.83;;;3.90;;
9150;SDS011;4610;50.006;7.490;2022-12-08T13:45:58;14.60;;;3.93;;
9150;SDS011;4610;50.006;7.490;2022-12-08T13:48:27;19.27;;;5.30;;
9150;SDS011;4610;50.006;7.490;2022-12-08T13:51:06;16.77;;;4.33;;
9150;SDS011;4610;50.006;7.490;2022-12-08T13:53:38;6.53;;;3.43;;
9150;SDS011;4610;50.006;7.490;2022-12-08T13:56:08;11.70;;;3.70;;
9150;SDS011;4610;50.006;7.490;2022-12-08T13:58:37;23.30;;;6.03;;
9150;SDS011;4610;50.006;7.490;2022-12-08T14:01:06;16.77;;;4.43;;
9150;SDS011;4610;50.006;7.490;2022-12-08T14:03:42;11.00;;;3.80;;
9150;SDS011;4610;50.006;7.490;2022-12-08T14:06:14;15.60;;;4.60;;
9150;SDS011;4610;50.006;7.490;2022-12-08T14:08:42;21.10;;;5.17;;
9150;SDS011;4610;50.006;7.490;2022-12-08T14:11:18;12.50;;;3.50;;
9150;SDS011;4610;50.006;7.490;2022-12-08T14:13:58;10.57;;;3.50;;
9150;SDS011;4610;50.006;7.490;2022-12-08T14:16:27;14.93;;;3.97;;
9150;SDS011;4610;50.006;7.490;2022-12-08T14:19:03;12.90;;;3.90;;
9150;SDS011;4610;50.006;7.490;2022-12-08T14:21:32;7.13;;;3.20;;
9150;SDS011;4610;50.006;7.490;2022-12-08T14:24:02;8.40;;;3.10;;
9150;SDS011;4610;50.006;7.490;2022-12-08T14:26:30;17.27;;;4.63;;
9150;SDS011;4610;50.006;7.490;2022-12-08T14:28:59;14.20;;;3.70;;
9150;SDS011;4610;50.006;7.490;2022-12-08T14:31:26;8.30;;;3.63;;
9150;SDS011;4610;50.006;7.490;2022-12-08T14:33:54;16.77;;;4.37;;
9150;SDS011;4610;50.006;7.490;2022-12-08T14:36:22;20.47;;;5.20;;
9150;SDS011;4610;50.006;7.490;2022-12-08T14:38:51;11.13;;;4.23;;
9150;SDS011;4610;50.006;7.490;2022-12-08T14:41:23;14.27;;;4.53;;
9150;SDS011;4610;50.006;7.490;2022-12-08T14:43:59;9.20;;;4.60;;
9150;SDS011;4610;50.006;7.490;2022-12-08T14:46:26;14.27;;;4.67;;
9150;SDS011;4610;50.006;7.490;2022-12-08T14:48:53;13.13;;;4.53;;
9150;SDS011;4610;50.006;7.490;2022-12-08T14:51:24;13.97;;;4.67;;
9150;SDS011;4610;50.006;7.490;2022-12-08T14:53:55;18.80;;;4.83;;
9150;SDS011;4610;50.006;7.490;2022-12-08T14:56:24;17.03;;;5.30;;
9150;SDS011;4610;50.006;7.490;2022-12-08T14:59:04;18.20;;;4.83;;
9150;SDS011;4610;50.006;7.490;2022-12-08T15:01:36;19.50;;;5.53;;
9150;SDS011;4610;50.006;7.490;2022-12-08T15:04:06;17.60;;;5.60;;
9150;SDS011;4610;50.006;7.490;2022-12-08T15:06:44;13.57;;;3.93;;
9150;SDS011;4610;50.006;7.490;2022-12-08T15:09:17;15.30;;;4.73;;
9150;SDS011;4610;50.006;7.490;2022-12-08T15:11:59;14.00;;;4.33;;
9150;SDS011;4610;50.006;7.490;2022-12-08T15:14:27;17.53;;;4.77;;
9150;SDS011;4610;50.006;7.490;2022-12-08T15:16:56;18.00;;;5.07;;
9150;SDS011;4610;50.006;7.490;2022-12-08T15:19:25;17.00;;;4.83;;
9150;SDS011;4610;50.006;7.490;2022-12-08T15:21:54;13.97;;;4.80;;
9150;SDS011;4610;50.006;7.490;2022-12-08T15:24:26;17.10;;;4.93;;
9150;SDS011;4610;50.006;7.490;2022-12-08T15:26:54;12.77;;;5.00;;
9150;SDS011;4610;50.006;7.490;2022-12-08T15:29:22;8.80;;;4.10;;
9150;SDS011;4610;50.006;7.490;2022-12-08T15:31:50;17.13;;;4.60;;
9150;SDS011;4610;50.006;7.490;2022-12-08T15:34:18;18.30;;;5.10;;
9150;SDS011;4610;50.006;7.490;2022-12-08T15:36:45;19.60;;;5.33;;
9150;SDS011;4610;50.006;7.490;2022-12-08T15:39:23;18.83;;;4.90;;
9150;SDS011;4610;50.006;7.490;2022-12-08T15:41:56;12.60;;;4.40;;